Time;durP1;ratioP1;P1;durP2;ratioP2;P2;SDS_P1;SDS_P2;PMS_P1;PMS_P2;Temp;Humidity;BMP_temperature;BMP_pressure;BME280_temperature;BME280_humidity;BME280_pressure;Samples;Min_cycle;Max_cycle;Signal;HPM_P1;HPM_P2
2020/12/23 00:01:16;;;;;;;;;;;18.50;44.30;;;;;;491632;240;1082;-53
2020/12/23 00:03:17;;;;;;;;;;;18.50;44.40;;;;;;491717;240;1166;-53
2020/12/23 00:05:18;;;;;;;;;;;18.50;44.40;;;;;;491623;240;933;-53
2020/12/23 00:07:19;;;;;;;;;;;18.50;44.50;;;;;;491660;240;1109;-53
2020/12/23 00:09:21;;;;;;;;;;;18.50;44.50;;;;;;491863;240;941;-53
2020/12/23 00:11:22;;;;;;;;;;;18.40;44.50;;;;;;491599;240;1198;-53
2020/12/23 00:13:23;;;;;;;;;;;18.40;44.60;;;;;;491903;240;1058;-52
2020/12/23 00:15:24;;;;;;;;;;;18.40;44.60;;;;;;491711;240;1051;-53
2020/12/23 00:17:26;;;;;;;;;;;18.40;44.60;;;;;;491654;240;1098;-53
2020/12/23 00:19:27;;;;;;;;;;;18.40;44.70;;;;;;491702;240;2180;-53
2020/12/23 00:21:28;;;;;;;;;;;18.30;44.60;;;;;;491654;240;1035;-53
2020/12/23 00:23:30;;;;;;;;;;;18.40;44.70;;;;;;491798;240;1036;-53
2020/12/23 00:25:31;;;;;;;;;;;18.30;44.60;;;;;;491913;240;1871;-53
2020/12/23 00:27:32;;;;;;;;;;;18.30;44.60;;;;;;491802;240;1036;-53
2020/12/23 00:29:33;;;;;;;;;;;18.30;44.60;;;;;;491721;240;989;-53
2020/12/23 00:31:35;;;;;;;;;;;18.30;44.60;;;;;;491656;240;966;-53
2020/12/23 00:33:36;;;;;;;;;;;18.30;44.70;;;;;;491865;240;1363;-53
2020/12/23 00:35:37;;;;;;;;;;;18.30;44.70;;;;;;491969;240;1028;-53
2020/12/23 00:37:39;;;;;;;;;;;18.20;43.40;;;;;;491751;240;1187;-53
2020/12/23 00:39:40;;;;;;;;;;;18.30;44.80;;;;;;491893;240;2133;-53
2020/12/23 00:41:41;;;;;;;;;;;18.20;44.80;;;;;;491830;240;1102;-53
2020/12/23 00:43:42;;;;;;;;;;;18.20;44.80;;;;;;491645;240;1052;-53
2020/12/23 00:45:44;;;;;;;;;;;18.20;44.80;;;;;;491830;240;1030;-53
2020/12/23 00:47:45;;;;;;;;;;;18.20;44.80;;;;;;491809;240;1049;-53
2020/12/23 00:49:46;;;;;;;;;;;18.20;44.80;;;;;;491660;240;956;-53
2020/12/23 00:51:47;;;;;;;;;;;18.20;44.90;;;;;;491914;240;1100;-53
2020/12/23 00:53:49;;;;;;;;;;;18.20;43.60;;;;;;491673;240;960;-53
2020/12/23 00:55:50;;;;;;;;;;;18.20;44.90;;;;;;491782;240;1181;-53
2020/12/23 00:57:51;;;;;;;;;;;18.20;44.90;;;;;;491725;240;1052;-53
2020/12/23 00:59:53;;;;;;;;;;;18.10;44.90;;;;;;491690;240;2183;-53
2020/12/23 01:01:54;;;;;;;;;;;18.20;45.00;;;;;;492104;240;1082;-53
2020/12/23 01:03:55;;;;;;;;;;;18.10;44.90;;;;;;491677;240;1043;-53
2020/12/23 01:05:56;;;;;;;;;;;18.10;44.90;;;;;;491629;240;1026;-52
2020/12/23 01:07:58;;;;;;;;;;;18.10;45.00;;;;;;491662;240;1270;-53
2020/12/23 01:09:59;;;;;;;;;;;18.10;45.00;;;;;;491693;240;983;-53
2020/12/23 01:12:00;;;;;;;;;;;18.10;45.00;;;;;;491751;240;1185;-52
2020/12/23 01:14:01;;;;;;;;;;;18.10;45.00;;;;;;491801;240;1022;-53
2020/12/23 01:16:03;;;;;;;;;;;18.10;45.00;;;;;;491646;240;1054;-53
2020/12/23 01:18:04;;;;;;;;;;;18.10;45.00;;;;;;491769;240;966;-52
2020/12/23 01:20:05;;;;;;;;;;;18.10;45.10;;;;;;491720;240;2144;-53
2020/12/23 01:22:07;;;;;;;;;;;18.10;45.10;;;;;;491759;240;1025;-53
2020/12/23 01:24:08;;;;;;;;;;;18.10;43.80;;;;;;491839;240;1077;-53
2020/12/23 01:26:09;;;;;;;;;;;18.10;45.10;;;;;;491809;240;1170;-53
2020/12/23 01:28:10;;;;;;;;;;;18.10;45.10;;;;;;491912;240;1057;-53
2020/12/23 01:30:12;;;;;;;;;;;18.00;45.10;;;;;;491629;240;1116;-53
2020/12/23 01:32:13;;;;;;;;;;;18.00;45.00;;;;;;491600;240;2303;-53
2020/12/23 01:34:14;;;;;;;;;;;18.00;45.10;;;;;;491904;240;1024;-53
2020/12/23 01:36:16;;;;;;;;;;;18.00;45.10;;;;;;491652;240;1222;-53
2020/12/23 01:38:17;;;;;;;;;;;18.00;45.10;;;;;;491697;240;1028;-53
2020/12/23 01:40:18;;;;;;;;;;;18.00;45.10;;;;;;491573;240;2199;-52
2020/12/23 01:42:19;;;;;;;;;;;18.00;45.10;;;;;;491661;240;1267;-53
2020/12/23 01:44:21;;;;;;;;;;;18.00;45.10;;;;;;491660;240;1035;-53
2020/12/23 01:46:22;;;;;;;;;;;18.00;45.10;;;;;;491548;240;1219;-52
2020/12/23 01:48:23;;;;;;;;;;;18.00;45.10;;;;;;491655;240;957;-53
2020/12/23 01:50:24;;;;;;;;;;;18.00;45.10;;;;;;491990;240;1167;-53
2020/12/23 01:52:26;;;;;;;;;;;18.00;45.20;;;;;;491837;240;1186;-53
2020/12/23 01:54:27;;;;;;;;;;;18.00;45.20;;;;;;492155;240;1228;-53
2020/12/23 01:56:28;;;;;;;;;;;18.00;45.20;;;;;;491599;240;1436;-53
2020/12/23 01:58:29;;;;;;;;;;;18.00;45.20;;;;;;491794;240;1073;-53
2020/12/23 02:00:31;;;;;;;;;;;18.00;45.20;;;;;;491616;240;2191;-53
2020/12/23 02:02:32;;;;;;;;;;;18.00;45.20;;;;;;491701;240;1256;-53
2020/12/23 02:04:33;;;;;;;;;;;18.00;45.20;;;;;;491654;240;1032;-53
2020/12/23 02:06:35;;;;;;;;;;;18.00;45.20;;;;;;491787;240;1051;-53
2020/12/23 02:08:36;;;;;;;;;;;18.00;45.30;;;;;;491802;240;1059;-53
2020/12/23 02:10:37;;;;;;;;;;;17.90;45.20;;;;;;491670;240;1068;-53
2020/12/23 02:12:38;;;;;;;;;;;17.90;45.20;;;;;;491599;240;1293;-53
2020/12/23 02:14:40;;;;;;;;;;;18.00;45.30;;;;;;491677;240;1221;-53
2020/12/23 02:16:41;;;;;;;;;;;17.90;45.20;;;;;;491579;240;1184;-52
2020/12/23 02:18:44;;;;;;;;;;;17.90;45.20;;;;;;491598;240;1055;-53
2020/12/23 02:20:44;;;;;;;;;;;17.90;45.30;;;;;;491563;242;2195;-52
2020/12/23 02:22:46;;;;;;;;;;;17.90;45.20;;;;;;491629;240;1197;-53
2020/12/23 02:24:46;;;;;;;;;;;17.90;43.80;;;;;;491811;241;1922;-53
2020/12/23 02:26:48;;;;;;;;;;;18.00;45.10;;;;;;491681;240;1174;-53
2020/12/23 02:28:49;;;;;;;;;;;18.00;45.10;;;;;;491777;240;1025;-52
2020/12/23 02:30:50;;;;;;;;;;;18.00;45.10;;;;;;491783;240;1045;-53
2020/12/23 02:32:52;;;;;;;;;;;18.00;45.00;;;;;;491611;240;1040;-53
2020/12/23 02:34:53;;;;;;;;;;;18.10;45.10;;;;;;491779;240;951;-53
2020/12/23 02:36:54;;;;;;;;;;;18.10;45.00;;;;;;491760;240;980;-53
2020/12/23 02:38:56;;;;;;;;;;;18.10;43.70;;;;;;491678;240;1121;-53
2020/12/23 02:40:57;;;;;;;;;;;18.10;45.00;;;;;;491612;240;2129;-53
2020/12/23 02:42:58;;;;;;;;;;;18.20;45.00;;;;;;491639;240;1223;-53
2020/12/23 02:44:59;;;;;;;;;;;18.20;45.00;;;;;;491804;240;1076;-53
2020/12/23 02:47:01;;;;;;;;;;;18.20;44.90;;;;;;491670;240;1217;-53
2020/12/23 02:49:02;;;;;;;;;;;18.20;44.80;;;;;;491745;240;1047;-53
2020/12/23 02:51:03;;;;;;;;;;;18.20;44.80;;;;;;491611;240;1128;-53
2020/12/23 02:53:05;;;;;;;;;;;18.20;44.80;;;;;;491878;240;1042;-53
2020/12/23 02:55:06;;;;;;;;;;;18.30;44.80;;;;;;491779;240;1053;-53
2020/12/23 02:57:07;;;;;;;;;;;18.30;44.70;;;;;;491577;240;1347;-53
2020/12/23 02:59:09;;;;;;;;;;;18.30;44.60;;;;;;491613;240;956;-53
2020/12/23 03:01:10;;;;;;;;;;;18.30;44.60;;;;;;491747;240;2141;-53
2020/12/23 03:03:11;;;;;;;;;;;18.30;44.60;;;;;;491805;240;1030;-53
2020/12/23 03:05:13;;;;;;;;;;;18.40;44.70;;;;;;491560;240;1068;-53
2020/12/23 03:07:15;;;;;;;;;;;18.40;44.70;;;;;;491642;240;1069;-53
2020/12/23 03:09:16;;;;;;;;;;;18.40;44.70;;;;;;491762;240;985;-53
2020/12/23 03:11:17;;;;;;;;;;;18.40;44.60;;;;;;491615;240;1092;-53
2020/12/23 03:13:19;;;;;;;;;;;18.40;44.60;;;;;;491617;240;1256;-53
2020/12/23 03:15:20;;;;;;;;;;;18.50;44.60;;;;;;491816;240;1027;-53
2020/12/23 03:17:21;;;;;;;;;;;18.50;44.50;;;;;;491705;240;1076;-53
2020/12/23 03:19:22;;;;;;;;;;;18.50;44.50;;;;;;491901;240;1009;-53
2020/12/23 03:21:24;;;;;;;;;;;18.50;44.40;;;;;;491562;240;2196;-53
2020/12/23 03:23:25;;;;;;;;;;;18.50;44.40;;;;;;491702;240;1007;-53
2020/12/23 03:25:26;;;;;;;;;;;18.50;44.40;;;;;;491684;240;972;-53
2020/12/23 03:27:28;;;;;;;;;;;18.60;44.40;;;;;;491599;240;1177;-53
2020/12/23 03:29:29;;;;;;;;;;;18.50;44.30;;;;;;491922;240;1068;-53
2020/12/23 03:31:30;;;;;;;;;;;18.60;44.40;;;;;;491642;240;1108;-53
2020/12/23 03:33:31;;;;;;;;;;;18.60;44.30;;;;;;491983;240;953;-53
2020/12/23 03:35:33;;;;;;;;;;;18.70;44.30;;;;;;491761;240;1021;-53
2020/12/23 03:37:34;;;;;;;;;;;18.70;44.30;;;;;;491615;240;1035;-53
2020/12/23 03:39:35;;;;;;;;;;;18.70;44.30;;;;;;491643;240;953;-53
2020/12/23 03:41:37;;;;;;;;;;;18.70;44.30;;;;;;491750;240;2124;-53
2020/12/23 03:43:38;;;;;;;;;;;18.70;44.20;;;;;;491769;240;1122;-53
2020/12/23 03:45:39;;;;;;;;;;;18.70;44.20;;;;;;491812;240;1095;-53
2020/12/23 03:47:40;;;;;;;;;;;18.70;44.20;;;;;;491712;240;1061;-53
2020/12/23 03:49:42;;;;;;;;;;;18.70;44.10;;;;;;491645;240;1222;-53
2020/12/23 03:51:43;;;;;;;;;;;18.70;44.10;;;;;;491776;240;1156;-53
2020/12/23 03:53:44;;;;;;;;;;;18.80;44.20;;;;;;491782;240;1006;-53
2020/12/23 03:55:45;;;;;;;;;;;18.80;44.10;;;;;;491752;240;1048;-53
2020/12/23 03:57:47;;;;;;;;;;;18.80;44.10;;;;;;491723;240;1121;-53
2020/12/23 03:59:48;;;;;;;;;;;18.80;44.00;;;;;;491663;240;1281;-53
2020/12/23 04:01:49;;;;;;;;;;;18.80;44.00;;;;;;491717;240;2116;-53
2020/12/23 04:03:51;;;;;;;;;;;18.80;44.00;;;;;;491891;240;962;-53
2020/12/23 04:05:52;;;;;;;;;;;18.80;44.00;;;;;;491661;240;1185;-53
2020/12/23 04:07:53;;;;;;;;;;;18.90;44.00;;;;;;491570;240;1212;-53
2020/12/23 04:09:54;;;;;;;;;;;18.90;44.00;;;;;;491611;240;1332;-53
2020/12/23 04:11:56;;;;;;;;;;;18.90;44.00;;;;;;491599;240;1050;-53
2020/12/23 04:13:57;;;;;;;;;;;18.90;44.00;;;;;;491640;240;1049;-53
2020/12/23 04:15:58;;;;;;;;;;;18.90;43.90;;;;;;491688;240;1044;-53
2020/12/23 04:18:00;;;;;;;;;;;18.90;43.90;;;;;;491684;240;1039;-53
2020/12/23 04:20:01;;;;;;;;;;;19.00;43.90;;;;;;491669;240;960;-53
2020/12/23 04:22:02;;;;;;;;;;;18.90;43.90;;;;;;491662;240;2148;-53
2020/12/23 04:24:04;;;;;;;;;;;19.00;43.90;;;;;;491857;240;1298;-53
2020/12/23 04:26:05;;;;;;;;;;;19.00;43.80;;;;;;491677;240;1151;-53
2020/12/23 04:28:06;;;;;;;;;;;19.00;42.60;;;;;;491666;240;1149;-53
2020/12/23 04:30:10;;;;;;;;;;;19.00;42.60;;;;;;491757;240;1107;-53
2020/12/23 04:32:11;;;;;;;;;;;19.00;43.90;;;;;;491886;240;1083;-53
2020/12/23 04:34:13;;;;;;;;;;;19.00;43.90;;;;;;491811;240;972;-53
2020/12/23 04:36:14;;;;;;;;;;;19.00;43.80;;;;;;491802;240;1201;-53
2020/12/23 04:38:15;;;;;;;;;;;19.00;43.80;;;;;;491612;240;1066;-53
2020/12/23 04:40:17;;;;;;;;;;;19.00;43.80;;;;;;491633;240;1050;-53
2020/12/23 04:42:18;;;;;;;;;;;19.00;43.80;;;;;;491665;240;2140;-53
2020/12/23 04:44:19;;;;;;;;;;;19.00;43.70;;;;;;491599;240;1288;-53
2020/12/23 04:46:20;;;;;;;;;;;19.10;43.70;;;;;;491611;240;1201;-53
2020/12/23 04:48:22;;;;;;;;;;;19.10;43.80;;;;;;491620;240;1157;-53
2020/12/23 04:50:23;;;;;;;;;;;19.10;43.70;;;;;;491625;240;1039;-53
2020/12/23 04:52:25;;;;;;;;;;;19.10;43.70;;;;;;491655;240;1230;-53
2020/12/23 04:54:26;;;;;;;;;;;19.10;43.70;;;;;;491848;240;1063;-53
2020/12/23 04:56:27;;;;;;;;;;;19.20;43.60;;;;;;491640;240;1056;-53
2020/12/23 04:58:29;;;;;;;;;;;19.20;43.30;;;;;;491616;240;1192;-53
2020/12/23 05:00:30;;;;;;;;;;;19.30;43.20;;;;;;491700;240;1021;-53
2020/12/23 05:02:31;;;;;;;;;;;19.30;43.20;;;;;;491881;240;2144;-53
2020/12/23 05:04:33;;;;;;;;;;;19.30;43.20;;;;;;491630;240;1020;-53
2020/12/23 05:06:34;;;;;;;;;;;19.30;43.30;;;;;;491695;240;1065;-53
2020/12/23 05:08:35;;;;;;;;;;;19.20;43.40;;;;;;491639;240;1051;-53
2020/12/23 05:10:37;;;;;;;;;;;19.20;43.40;;;;;;491626;240;1071;-52
2020/12/23 05:12:38;;;;;;;;;;;19.20;43.50;;;;;;491632;240;926;-53
2020/12/23 05:14:39;;;;;;;;;;;19.10;43.60;;;;;;491862;240;1131;-53
2020/12/23 05:16:40;;;;;;;;;;;19.10;43.60;;;;;;491710;240;1056;-53
2020/12/23 05:18:42;;;;;;;;;;;19.10;43.70;;;;;;491660;240;1043;-53
2020/12/23 05:20:43;;;;;;;;;;;19.00;43.70;;;;;;491618;240;1045;-53
2020/12/23 05:22:44;;;;;;;;;;;19.00;43.80;;;;;;491666;240;2200;-53
2020/12/23 05:24:46;;;;;;;;;;;19.00;43.90;;;;;;491653;240;1026;-53
2020/12/23 05:26:47;;;;;;;;;;;18.90;43.90;;;;;;491609;240;1127;-53
2020/12/23 05:28:48;;;;;;;;;;;18.90;44.00;;;;;;491693;240;1183;-53
2020/12/23 05:30:49;;;;;;;;;;;18.90;44.10;;;;;;491568;240;1020;-53
2020/12/23 05:32:51;;;;;;;;;;;18.90;44.10;;;;;;491621;240;1089;-53
2020/12/23 05:34:53;;;;;;;;;;;18.80;44.20;;;;;;491689;240;1095;-53
2020/12/23 05:36:53;;;;;;;;;;;18.80;44.20;;;;;;491565;241;1480;-53
2020/12/23 05:38:55;;;;;;;;;;;18.80;44.30;;;;;;491652;240;1005;-53
2020/12/23 05:40:56;;;;;;;;;;;18.80;44.40;;;;;;491677;240;1007;-53
2020/12/23 05:42:57;;;;;;;;;;;18.70;44.40;;;;;;491547;240;2121;-53
2020/12/23 05:44:58;;;;;;;;;;;18.70;44.50;;;;;;491803;240;1165;-53
2020/12/23 05:47:00;;;;;;;;;;;18.60;44.50;;;;;;491596;240;1090;-52
2020/12/23 05:49:01;;;;;;;;;;;18.70;44.50;;;;;;491527;240;1255;-53
2020/12/23 05:51:02;;;;;;;;;;;18.60;44.60;;;;;;491532;240;1031;-53
2020/12/23 05:53:03;;;;;;;;;;;18.60;44.60;;;;;;491564;240;1025;-53
2020/12/23 05:55:05;;;;;;;;;;;18.60;44.70;;;;;;491772;240;1044;-53
2020/12/23 05:57:06;;;;;;;;;;;18.50;44.70;;;;;;491575;240;1223;-52
2020/12/23 05:59:07;;;;;;;;;;;18.50;44.70;;;;;;491578;240;1143;-53
2020/12/23 06:01:09;;;;;;;;;;;18.50;44.70;;;;;;491514;240;1064;-53
2020/12/23 06:03:10;;;;;;;;;;;18.50;44.70;;;;;;491577;240;1038;-53
2020/12/23 06:05:11;;;;;;;;;;;18.50;44.70;;;;;;491473;240;1040;-53
2020/12/23 06:07:13;;;;;;;;;;;18.50;44.80;;;;;;491570;240;1063;-53
2020/12/23 06:09:17;;;;;;;;;;;18.40;44.80;;;;;;491610;240;1052;-53
2020/12/23 06:11:16;;;;;;;;;;;18.50;44.90;;;;;;491504;242;2100;-53
2020/12/23 06:13:18;;;;;;;;;;;18.40;44.90;;;;;;491559;240;1087;-52
2020/12/23 06:15:19;;;;;;;;;;;18.40;44.90;;;;;;491581;240;1160;-53
2020/12/23 06:17:20;;;;;;;;;;;18.40;45.00;;;;;;491622;240;1099;-53
2020/12/23 06:19:21;;;;;;;;;;;18.40;45.00;;;;;;491775;240;1033;-53
2020/12/23 06:21:23;;;;;;;;;;;18.40;45.00;;;;;;491552;240;2183;-53
2020/12/23 06:23:24;;;;;;;;;;;18.40;45.10;;;;;;491675;240;1048;-53
2020/12/23 06:25:25;;;;;;;;;;;18.30;45.00;;;;;;491553;240;1079;-53
2020/12/23 06:27:27;;;;;;;;;;;18.30;45.00;;;;;;491557;240;1100;-53
2020/12/23 06:29:28;;;;;;;;;;;18.30;43.80;;;;;;491486;240;1455;-53
2020/12/23 06:31:29;;;;;;;;;;;18.30;45.10;;;;;;491585;240;1031;-53
2020/12/23 06:33:30;;;;;;;;;;;18.30;45.10;;;;;;491524;240;1164;-53
2020/12/23 06:35:32;;;;;;;;;;;18.30;45.20;;;;;;491525;240;1118;-53
2020/12/23 06:37:33;;;;;;;;;;;18.30;45.20;;;;;;491545;240;1062;-53
2020/12/23 06:39:34;;;;;;;;;;;18.20;45.20;;;;;;491545;240;1076;-53
2020/12/23 06:41:36;;;;;;;;;;;18.20;45.20;;;;;;491521;240;2132;-53
2020/12/23 06:43:37;;;;;;;;;;;18.20;45.20;;;;;;491567;240;1150;-53
2020/12/23 06:45:38;;;;;;;;;;;18.20;45.30;;;;;;491627;240;1180;-53
2020/12/23 06:47:40;;;;;;;;;;;18.20;45.20;;;;;;491498;240;1023;-53
2020/12/23 06:49:41;;;;;;;;;;;18.20;45.30;;;;;;491524;240;1052;-53
2020/12/23 06:51:42;;;;;;;;;;;18.20;45.30;;;;;;491499;240;1026;-53
2020/12/23 06:53:44;;;;;;;;;;;18.20;45.30;;;;;;491518;240;1079;-53
2020/12/23 06:55:45;;;;;;;;;;;18.20;45.30;;;;;;491511;240;973;-53
2020/12/23 06:57:46;;;;;;;;;;;18.20;45.30;;;;;;491577;240;1030;-53
2020/12/23 06:59:47;;;;;;;;;;;18.20;44.00;;;;;;491623;240;1045;-53
2020/12/23 07:01:49;;;;;;;;;;;18.10;45.30;;;;;;491512;240;2184;-53
2020/12/23 07:03:50;;;;;;;;;;;18.10;45.30;;;;;;491605;240;1238;-53
2020/12/23 07:05:51;;;;;;;;;;;18.10;45.40;;;;;;491515;240;1074;-53
2020/12/23 07:07:52;;;;;;;;;;;18.10;45.40;;;;;;491577;240;1165;-53
2020/12/23 07:09:54;;;;;;;;;;;18.10;45.40;;;;;;491595;240;1131;-53
2020/12/23 07:11:55;;;;;;;;;;;18.10;45.40;;;;;;491502;240;1276;-53
2020/12/23 07:13:56;;;;;;;;;;;18.10;45.40;;;;;;491453;240;1014;-52
2020/12/23 07:15:58;;;;;;;;;;;18.10;45.50;;;;;;491506;240;1181;-53
2020/12/23 07:17:59;;;;;;;;;;;18.10;45.50;;;;;;491413;240;1635;-53
2020/12/23 07:20:00;;;;;;;;;;;18.10;45.50;;;;;;491459;240;1194;-53
2020/12/23 07:22:01;;;;;;;;;;;18.10;45.50;;;;;;491422;240;2121;-53
2020/12/23 07:24:03;;;;;;;;;;;18.10;45.50;;;;;;491425;240;1079;-52
2020/12/23 07:26:04;;;;;;;;;;;18.10;45.50;;;;;;491506;240;1143;-53
2020/12/23 07:28:05;;;;;;;;;;;18.10;45.50;;;;;;491397;240;1137;-53
2020/12/23 07:30:06;;;;;;;;;;;18.10;45.50;;;;;;491376;242;1024;-53
2020/12/23 07:32:08;;;;;;;;;;;18.00;45.50;;;;;;491345;240;1421;-53
2020/12/23 07:34:09;;;;;;;;;;;18.00;45.50;;;;;;491577;240;1176;-53
2020/12/23 07:36:10;;;;;;;;;;;18.00;45.50;;;;;;491510;240;1368;-53
2020/12/23 07:38:12;;;;;;;;;;;18.00;45.50;;;;;;491349;240;1201;-52
2020/12/23 07:40:13;;;;;;;;;;;18.00;45.50;;;;;;491576;240;1007;-53
2020/12/23 07:42:14;;;;;;;;;;;18.00;45.50;;;;;;491426;240;2185;-53
2020/12/23 07:44:15;;;;;;;;;;;18.00;45.60;;;;;;491495;240;1294;-53
2020/12/23 07:46:17;;;;;;;;;;;18.00;45.60;;;;;;491599;240;1216;-53
2020/12/23 07:48:18;;;;;;;;;;;18.00;45.60;;;;;;491571;240;1135;-52
2020/12/23 07:50:19;;;;;;;;;;;18.00;45.60;;;;;;491536;240;979;-52
2020/12/23 07:52:21;;;;;;;;;;;18.00;45.60;;;;;;491526;240;1220;-53
2020/12/23 07:54:22;;;;;;;;;;;18.00;45.70;;;;;;491450;240;993;-53
2020/12/23 07:56:23;;;;;;;;;;;18.00;45.60;;;;;;491403;240;1218;-53
2020/12/23 07:58:24;;;;;;;;;;;18.00;45.70;;;;;;491366;240;1044;-53
2020/12/23 08:00:26;;;;;;;;;;;18.00;45.70;;;;;;491517;240;1293;-53
2020/12/23 08:02:27;;;;;;;;;;;18.00;45.70;;;;;;491499;240;2152;-52
2020/12/23 08:04:28;;;;;;;;;;;18.00;45.70;;;;;;491524;240;1024;-53
2020/12/23 08:06:30;;;;;;;;;;;17.90;45.70;;;;;;491329;240;1132;-53
2020/12/23 08:08:31;;;;;;;;;;;17.90;44.40;;;;;;491505;240;1121;-53
2020/12/23 08:10:32;;;;;;;;;;;18.00;45.70;;;;;;491455;240;1359;-53
2020/12/23 08:12:33;;;;;;;;;;;17.90;45.70;;;;;;491480;240;1166;-53
2020/12/23 08:14:35;;;;;;;;;;;17.90;45.70;;;;;;491489;240;1089;-53
2020/12/23 08:16:36;;;;;;;;;;;17.90;45.70;;;;;;491449;240;1176;-53
2020/12/23 08:18:37;;;;;;;;;;;17.90;44.50;;;;;;491484;240;1320;-53
2020/12/23 08:20:38;;;;;;;;;;;17.90;45.80;;;;;;491443;240;1068;-53
2020/12/23 08:22:40;;;;;;;;;;;17.90;45.70;;;;;;491530;240;2136;-53
2020/12/23 08:24:41;;;;;;;;;;;18.00;45.70;;;;;;491488;240;970;-53
2020/12/23 08:26:42;;;;;;;;;;;18.00;45.70;;;;;;491472;240;1012;-53
2020/12/23 08:28:43;;;;;;;;;;;18.00;45.60;;;;;;491552;240;1091;-53
2020/12/23 08:30:45;;;;;;;;;;;18.00;45.60;;;;;;491430;240;1112;-53
2020/12/23 08:32:46;;;;;;;;;;;18.00;45.60;;;;;;491398;240;1176;-53
2020/12/23 08:34:47;;;;;;;;;;;18.10;45.60;;;;;;491440;240;1064;-53
2020/12/23 08:36:49;;;;;;;;;;;18.10;45.50;;;;;;491421;240;1058;-53
2020/12/23 08:38:52;;;;;;;;;;;18.10;45.50;;;;;;491349;240;2338;-53
2020/12/23 08:40:51;;;;;;;;;;;18.10;45.50;;;;;;491372;242;1350;-53
2020/12/23 08:42:53;;;;;;;;;;;18.20;45.50;;;;;;491463;240;2136;-53
2020/12/23 08:44:54;;;;;;;;;;;18.20;45.50;;;;;;491392;240;1051;-53
2020/12/23 08:46:55;;;;;;;;;;;18.20;45.40;;;;;;491344;240;1193;-53
2020/12/23 08:48:57;;;;;;;;;;;18.20;45.40;;;;;;491453;240;1016;-53
2020/12/23 08:50:58;;;;;;;;;;;18.20;45.40;;;;;;491414;240;976;-53
2020/12/23 08:52:59;;;;;;;;;;;18.20;45.30;;;;;;491471;240;1068;-53
2020/12/23 08:55:00;;;;;;;;;;;18.30;45.30;;;;;;491394;240;1052;-53
2020/12/23 08:57:02;;;;;;;;;;;18.30;45.30;;;;;;491304;240;1166;-53
2020/12/23 08:59:03;;;;;;;;;;;18.30;45.30;;;;;;491314;240;1062;-53
2020/12/23 09:01:04;;;;;;;;;;;18.30;45.20;;;;;;491321;240;1231;-53
2020/12/23 09:03:05;;;;;;;;;;;18.40;45.30;;;;;;491447;240;2172;-53
2020/12/23 09:05:07;;;;;;;;;;;18.30;45.20;;;;;;491443;240;1086;-53
2020/12/23 09:07:08;;;;;;;;;;;18.40;45.20;;;;;;491480;240;1301;-53
2020/12/23 09:09:09;;;;;;;;;;;18.40;45.20;;;;;;491514;240;1036;-53
2020/12/23 09:11:11;;;;;;;;;;;18.40;45.10;;;;;;491459;240;1136;-53
2020/12/23 09:13:12;;;;;;;;;;;18.40;45.10;;;;;;491552;240;1030;-53
2020/12/23 09:15:13;;;;;;;;;;;18.50;45.10;;;;;;491422;240;1238;-53
2020/12/23 09:17:15;;;;;;;;;;;18.50;45.10;;;;;;491378;240;1289;-53
2020/12/23 09:19:16;;;;;;;;;;;18.50;45.10;;;;;;491462;240;1287;-53
2020/12/23 09:21:17;;;;;;;;;;;18.50;45.00;;;;;;491479;240;1052;-53
2020/12/23 09:23:18;;;;;;;;;;;18.50;45.00;;;;;;491464;240;2140;-53
2020/12/23 09:25:20;;;;;;;;;;;18.50;44.90;;;;;;491407;240;997;-53
2020/12/23 09:27:21;;;;;;;;;;;18.60;45.00;;;;;;491441;240;948;-53
2020/12/23 09:29:22;;;;;;;;;;;18.60;44.90;;;;;;491402;240;1073;-53
2020/12/23 09:31:26;;;;;;;;;;;18.60;44.90;;;;;;491352;240;1107;-53
2020/12/23 09:33:25;;;;;;;;;;;18.60;44.90;;;;;;491358;241;1385;-53
2020/12/23 09:35:26;;;;;;;;;;;18.60;44.80;;;;;;491356;240;979;-53
2020/12/23 09:37:27;;;;;;;;;;;18.60;44.80;;;;;;491332;240;1083;-53
2020/12/23 09:39:29;;;;;;;;;;;18.70;44.90;;;;;;491418;238;1477;-53
2020/12/23 09:41:30;;;;;;;;;;;18.70;44.80;;;;;;491454;240;943;-53
2020/12/23 09:43:31;;;;;;;;;;;18.70;44.90;;;;;;491343;240;2180;-53
2020/12/23 09:45:32;;;;;;;;;;;18.70;44.80;;;;;;491448;240;991;-53
2020/12/23 09:47:34;;;;;;;;;;;18.70;44.80;;;;;;491351;240;1228;-53
2020/12/23 09:49:35;;;;;;;;;;;18.80;44.90;;;;;;491626;240;1003;-53
2020/12/23 09:51:36;;;;;;;;;;;18.70;44.80;;;;;;491376;240;1052;-53
2020/12/23 09:53:37;;;;;;;;;;;18.80;44.80;;;;;;491501;240;1023;-53
2020/12/23 09:55:39;;;;;;;;;;;18.80;44.70;;;;;;491315;240;1034;-53
2020/12/23 09:57:40;;;;;;;;;;;18.80;44.80;;;;;;491307;240;1140;-53
2020/12/23 09:59:41;;;;;;;;;;;18.80;44.80;;;;;;491354;240;1070;-54
2020/12/23 10:01:43;;;;;;;;;;;18.80;44.60;;;;;;491381;240;946;-53
2020/12/23 10:03:44;;;;;;;;;;;18.80;44.70;;;;;;491466;240;2148;-53
2020/12/23 10:05:45;;;;;;;;;;;18.80;44.60;;;;;;491356;240;1121;-53
2020/12/23 10:07:46;;;;;;;;;;;18.90;44.70;;;;;;491377;240;1048;-53
2020/12/23 10:09:48;;;;;;;;;;;18.90;44.60;;;;;;491368;240;1006;-53
2020/12/23 10:11:49;;;;;;;;;;;18.90;44.60;;;;;;491315;240;1068;-53
2020/12/23 10:13:51;;;;;;;;;;;18.90;44.60;;;;;;491417;240;1036;-53
2020/12/23 10:15:52;;;;;;;;;;;18.90;44.50;;;;;;491344;240;1055;-53
2020/12/23 10:17:53;;;;;;;;;;;18.90;44.60;;;;;;491408;240;1182;-53
2020/12/23 10:19:54;;;;;;;;;;;19.00;43.30;;;;;;491569;240;1070;-53
2020/12/23 10:21:56;;;;;;;;;;;18.90;44.60;;;;;;491370;240;1071;-53
2020/12/23 10:23:57;;;;;;;;;;;19.00;44.60;;;;;;491357;240;2187;-53
2020/12/23 10:25:58;;;;;;;;;;;19.00;44.60;;;;;;491337;240;1050;-53
2020/12/23 10:28:00;;;;;;;;;;;19.00;44.50;;;;;;491244;240;1200;-53
2020/12/23 10:30:01;;;;;;;;;;;19.00;44.50;;;;;;491329;240;1075;-53
2020/12/23 10:32:02;;;;;;;;;;;19.00;44.50;;;;;;491307;240;1099;-53
2020/12/23 10:34:04;;;;;;;;;;;19.00;43.20;;;;;;491362;240;1131;-53
2020/12/23 10:36:05;;;;;;;;;;;19.00;44.50;;;;;;491307;240;1158;-53
2020/12/23 10:38:06;;;;;;;;;;;19.00;43.10;;;;;;491357;240;1038;-53
2020/12/23 10:40:08;;;;;;;;;;;19.00;44.40;;;;;;491397;240;1139;-53
2020/12/23 10:42:09;;;;;;;;;;;19.00;44.40;;;;;;491451;240;1045;-53
2020/12/23 10:44:10;;;;;;;;;;;19.10;44.50;;;;;;491435;240;2136;-53
2020/12/23 10:46:12;;;;;;;;;;;19.10;44.40;;;;;;491315;240;1235;-53
2020/12/23 10:48:13;;;;;;;;;;;19.10;44.40;;;;;;491372;240;1137;-53
2020/12/23 10:50:14;;;;;;;;;;;19.10;44.40;;;;;;491364;240;1188;-53
2020/12/23 10:52:15;;;;;;;;;;;19.10;44.40;;;;;;491438;240;1151;-53
2020/12/23 10:54:17;;;;;;;;;;;19.10;44.40;;;;;;491419;240;1089;-53
2020/12/23 10:56:18;;;;;;;;;;;19.10;44.30;;;;;;491267;240;1185;-53
2020/12/23 10:58:21;;;;;;;;;;;19.10;44.20;;;;;;491334;240;1036;-53
2020/12/23 11:00:20;;;;;;;;;;;19.20;44.00;;;;;;491364;241;2432;-53
2020/12/23 11:02:22;;;;;;;;;;;19.30;43.90;;;;;;491286;240;1158;-53
2020/12/23 11:04:23;;;;;;;;;;;19.30;43.80;;;;;;491424;240;2179;-54
2020/12/23 11:06:24;;;;;;;;;;;19.30;43.90;;;;;;491176;240;1217;-53
2020/12/23 11:08:26;;;;;;;;;;;19.30;44.00;;;;;;491316;240;1037;-52
2020/12/23 11:10:27;;;;;;;;;;;19.20;44.00;;;;;;491331;240;956;-53
2020/12/23 11:12:28;;;;;;;;;;;19.20;44.10;;;;;;491314;240;1160;-53
2020/12/23 11:14:29;;;;;;;;;;;19.10;44.10;;;;;;491259;240;1064;-53
2020/12/23 11:16:31;;;;;;;;;;;19.10;44.20;;;;;;491281;240;983;-53
2020/12/23 11:18:32;;;;;;;;;;;19.10;44.30;;;;;;491236;240;1180;-53
2020/12/23 11:20:33;;;;;;;;;;;19.00;44.40;;;;;;491306;240;1051;-53
2020/12/23 11:22:34;;;;;;;;;;;19.00;43.20;;;;;;491236;240;1046;-52
2020/12/23 11:24:36;;;;;;;;;;;19.00;44.60;;;;;;491200;240;2173;-53
2020/12/23 11:26:37;;;;;;;;;;;18.90;44.60;;;;;;491263;240;1042;-52
2020/12/23 11:28:38;;;;;;;;;;;18.90;44.70;;;;;;491298;240;1043;-53
2020/12/23 11:30:40;;;;;;;;;;;18.90;44.90;;;;;;491251;240;1173;-53
2020/12/23 11:32:41;;;;;;;;;;;18.80;44.90;;;;;;491430;240;1051;-53
2020/12/23 11:34:42;;;;;;;;;;;18.80;43.60;;;;;;491237;240;1195;-53
2020/12/23 11:36:43;;;;;;;;;;;18.80;44.90;;;;;;491246;240;1257;-53
2020/12/23 11:38:45;;;;;;;;;;;18.80;45.00;;;;;;491384;240;1219;-52
2020/12/23 11:40:46;;;;;;;;;;;18.70;45.00;;;;;;491397;240;1065;-53
2020/12/23 11:42:47;;;;;;;;;;;18.70;45.10;;;;;;491460;240;1125;-53
2020/12/23 11:44:50;;;;;;;;;;;18.70;45.20;;;;;;491414;240;2133;-53
2020/12/23 11:46:50;;;;;;;;;;;18.70;45.20;;;;;;491343;240;2005;-53
2020/12/23 11:48:51;;;;;;;;;;;18.60;45.20;;;;;;491366;240;1202;-53
2020/12/23 11:50:52;;;;;;;;;;;18.60;45.30;;;;;;491289;240;1214;-53
2020/12/23 11:52:54;;;;;;;;;;;18.60;45.30;;;;;;491262;240;1132;-53
2020/12/23 11:54:55;;;;;;;;;;;18.60;45.40;;;;;;491299;240;1088;-53
2020/12/23 11:56:56;;;;;;;;;;;18.60;45.40;;;;;;491395;240;1164;-53